sensor_id;sensor_type;location;lat;lon;timestamp;P1;durP1;ratioP1;P2;durP2;ratioP2
19032;SDS011;9649;51.042;13.804;2023-04-15T00:04:43;4.73;;;4.23;;
19032;SDS011;9649;51.042;13.804;2023-04-15T00:09:46;5.13;;;4.20;;
19032;SDS011;9649;51.042;13.804;2023-04-15T00:14:50;6.37;;;4.50;;
19032;SDS011;9649;51.042;13.804;2023-04-15T00:19:53;4.07;;;3.63;;
19032;SDS011;9649;51.042;13.804;2023-04-15T00:24:56;4.47;;;3.47;;
19032;SDS011;9649;51.042;13.804;2023-04-15T00:30:00;5.50;;;3.60;;
19032;SDS011;9649;51.042;13.804;2023-04-15T00:35:04;4.70;;;3.60;;
19032;SDS011;9649;51.042;13.804;2023-04-15T00:40:09;3.97;;;3.10;;
19032;SDS011;9649;51.042;13.804;2023-04-15T00:45:15;3.43;;;3.00;;
19032;SDS011;9649;51.042;13.804;2023-04-15T00:50:18;3.27;;;2.97;;
19032;SDS011;9649;51.042;13.804;2023-04-15T00:55:21;3.60;;;3.10;;
19032;SDS011;9649;51.042;13.804;2023-04-15T01:00:25;3.73;;;2.83;;
19032;SDS011;9649;51.042;13.804;2023-04-15T01:05:28;3.50;;;2.90;;
19032;SDS011;9649;51.042;13.804;2023-04-15T01:10:31;3.00;;;2.70;;
19032;SDS011;9649;51.042;13.804;2023-04-15T01:15:36;4.57;;;3.33;;
19032;SDS011;9649;51.042;13.804;2023-04-15T01:20:39;3.83;;;3.20;;
19032;SDS011;9649;51.042;13.804;2023-04-15T01:25:43;3.43;;;3.10;;
19032;SDS011;9649;51.042;13.804;2023-04-15T01:30:47;4.93;;;3.40;;
19032;SDS011;9649;51.042;13.804;2023-04-15T01:35:50;3.73;;;3.10;;
19032;SDS011;9649;51.042;13.804;2023-04-15T01:40:54;4.17;;;3.37;;
19032;SDS011;9649;51.042;13.804;2023-04-15T01:45:57;3.97;;;3.17;;
19032;SDS011;9649;51.042;13.804;2023-04-15T01:51:00;7.70;;;3.90;;
19032;SDS011;9649;51.042;13.804;2023-04-15T01:56:05;3.90;;;3.50;;
19032;SDS011;9649;51.042;13.804;2023-04-15T02:01:08;3.97;;;3.33;;
19032;SDS011;9649;51.042;13.804;2023-04-15T02:06:12;6.60;;;3.67;;
19032;SDS011;9649;51.042;13.804;2023-04-15T02:11:16;4.67;;;3.63;;
19032;SDS011;9649;51.042;13.804;2023-04-15T02:16:18;4.77;;;3.97;;
19032;SDS011;9649;51.042;13.804;2023-04-15T02:21:21;4.70;;;4.20;;
19032;SDS011;9649;51.042;13.804;2023-04-15T02:26:26;4.37;;;3.97;;
19032;SDS011;9649;51.042;13.804;2023-04-15T02:31:32;4.63;;;3.70;;
19032;SDS011;9649;51.042;13.804;2023-04-15T02:36:38;5.80;;;3.90;;
19032;SDS011;9649;51.042;13.804;2023-04-15T02:41:42;4.63;;;3.73;;
19032;SDS011;9649;51.042;13.804;2023-04-15T02:46:47;4.20;;;3.80;;
19032;SDS011;9649;51.042;13.804;2023-04-15T02:51:52;3.53;;;3.23;;
19032;SDS011;9649;51.042;13.804;2023-04-15T02:56:56;4.63;;;4.17;;
19032;SDS011;9649;51.042;13.804;2023-04-15T03:01:59;5.83;;;4.53;;
19032;SDS011;9649;51.042;13.804;2023-04-15T03:07:02;5.27;;;3.70;;
19032;SDS011;9649;51.042;13.804;2023-04-15T03:12:09;6.07;;;4.40;;
19032;SDS011;9649;51.042;13.804;2023-04-15T03:17:12;4.00;;;3.60;;
19032;SDS011;9649;51.042;13.804;2023-04-15T03:22:15;4.37;;;3.80;;
19032;SDS011;9649;51.042;13.804;2023-04-15T03:27:19;4.60;;;3.90;;
19032;SDS011;9649;51.042;13.804;2023-04-15T03:32:22;4.67;;;4.00;;
19032;SDS011;9649;51.042;13.804;2023-04-15T03:37:25;4.37;;;3.73;;
19032;SDS011;9649;51.042;13.804;2023-04-15T03:42:29;5.17;;;4.40;;
19032;SDS011;9649;51.042;13.804;2023-04-15T03:47:31;5.37;;;4.73;;
19032;SDS011;9649;51.042;13.804;2023-04-15T03:52:34;5.03;;;4.23;;
19032;SDS011;9649;51.042;13.804;2023-04-15T03:57:38;5.57;;;4.90;;
19032;SDS011;9649;51.042;13.804;2023-04-15T04:02:41;4.93;;;4.43;;
19032;SDS011;9649;51.042;13.804;2023-04-15T04:07:46;5.70;;;5.10;;
19032;SDS011;9649;51.042;13.804;2023-04-15T04:12:50;5.73;;;5.13;;
19032;SDS011;9649;51.042;13.804;2023-04-15T04:17:53;5.70;;;5.00;;
19032;SDS011;9649;51.042;13.804;2023-04-15T04:22:56;7.83;;;5.23;;
19032;SDS011;9649;51.042;13.804;2023-04-15T04:28:00;6.07;;;4.60;;
19032;SDS011;9649;51.042;13.804;2023-04-15T04:33:03;5.33;;;4.77;;
19032;SDS011;9649;51.042;13.804;2023-04-15T04:38:06;8.23;;;5.97;;
19032;SDS011;9649;51.042;13.804;2023-04-15T04:43:10;6.57;;;5.40;;
19032;SDS011;9649;51.042;13.804;2023-04-15T04:48:15;6.90;;;5.73;;
19032;SDS011;9649;51.042;13.804;2023-04-15T04:53:17;6.63;;;5.47;;
19032;SDS011;9649;51.042;13.804;2023-04-15T04:58:22;6.73;;;5.70;;
19032;SDS011;9649;51.042;13.804;2023-04-15T05:03:24;7.13;;;5.57;;
19032;SDS011;9649;51.042;13.804;2023-04-15T05:08:31;5.77;;;5.00;;
19032;SDS011;9649;51.042;13.804;2023-04-15T05:13:35;6.50;;;5.17;;
19032;SDS011;9649;51.042;13.804;2023-04-15T05:18:39;6.57;;;5.10;;
19032;SDS011;9649;51.042;13.804;2023-04-15T05:23:43;4.60;;;3.97;;
19032;SDS011;9649;51.042;13.804;2023-04-15T05:28:48;5.27;;;4.27;;
19032;SDS011;9649;51.042;13.804;2023-04-15T05:33:51;4.43;;;3.67;;
19032;SDS011;9649;51.042;13.804;2023-04-15T05:38:54;6.37;;;4.63;;
19032;SDS011;9649;51.042;13.804;2023-04-15T05:43:58;6.10;;;3.80;;
19032;SDS011;9649;51.042;13.804;2023-04-15T05:49:01;4.50;;;3.20;;
19032;SDS011;9649;51.042;13.804;2023-04-15T05:54:04;4.97;;;3.67;;
19032;SDS011;9649;51.042;13.804;2023-04-15T05:59:09;3.10;;;2.70;;
19032;SDS011;9649;51.042;13.804;2023-04-15T06:04:14;3.57;;;2.77;;
19032;SDS011;9649;51.042;13.804;2023-04-15T06:09:26;2.43;;;2.00;;
19032;SDS011;9649;51.042;13.804;2023-04-15T06:14:31;2.00;;;1.80;;
19032;SDS011;9649;51.042;13.804;2023-04-15T06:19:38;1.50;;;1.40;;
19032;SDS011;9649;51.042;13.804;2023-04-15T06:24:56;2.53;;;1.90;;
19032;SDS011;9649;51.042;13.804;2023-04-15T06:30:17;2.20;;;1.90;;
19032;SDS011;9649;51.042;13.804;2023-04-15T06:35:21;1.90;;;1.70;;
19032;SDS011;9649;51.042;13.804;2023-04-15T06:40:27;2.37;;;1.20;;
19032;SDS011;9649;51.042;13.804;2023-04-15T06:45:42;1.70;;;1.10;;
19032;SDS011;9649;51.042;13.804;2023-04-15T06:51:30;2.50;;;1.70;;
19032;SDS011;9649;51.042;13.804;2023-04-15T07:15:28;2.43;;;1.30;;
19032;SDS011;9649;51.042;13.804;2023-04-15T07:20:51;3.07;;;2.00;;
19032;SDS011;9649;51.042;13.804;2023-04-15T07:26:06;1.07;;;0.97;;
19032;SDS011;9649;51.042;13.804;2023-04-15T07:42:47;1.43;;;0.80;;
19032;SDS011;9649;51.042;13.804;2023-04-15T08:00:24;0.80;;;0.60;;
19032;SDS011;9649;51.042;13.804;2023-04-15T08:05:58;1.77;;;0.80;;
19032;SDS011;9649;51.042;13.804;2023-04-15T08:17:44;1.37;;;1.10;;
19032;SDS011;9649;51.042;13.804;2023-04-15T08:23:26;1.57;;;0.90;;
19032;SDS011;9649;51.042;13.804;2023-04-15T08:29:03;2.33;;;1.00;;
19032;SDS011;9649;51.042;13.804;2023-04-15T08:41:23;1.97;;;1.03;;
19032;SDS011;9649;51.042;13.804;2023-04-15T08:47:36;2.53;;;1.97;;
19032;SDS011;9649;51.042;13.804;2023-04-15T08:53:25;2.70;;;2.37;;
19032;SDS011;9649;51.042;13.804;2023-04-15T08:58:37;2.50;;;2.30;;
19032;SDS011;9649;51.042;13.804;2023-04-15T09:03:41;2.93;;;2.50;;
19032;SDS011;9649;51.042;13.804;2023-04-15T09:08:44;2.63;;;2.40;;
19032;SDS011;9649;51.042;13.804;2023-04-15T09:13:49;3.77;;;2.73;;
19032;SDS011;9649;51.042;13.804;2023-04-15T09:18:55;3.97;;;2.60;;
19032;SDS011;9649;51.042;13.804;2023-04-15T09:23:58;2.30;;;2.00;;
19032;SDS011;9649;51.042;13.804;2023-04-15T09:29:05;3.40;;;2.63;;
19032;SDS011;9649;51.042;13.804;2023-04-15T09:34:09;2.33;;;2.13;;
19032;SDS011;9649;51.042;13.804;2023-04-15T09:39:12;3.20;;;2.30;;
19032;SDS011;9649;51.042;13.804;2023-04-15T09:44:23;2.77;;;2.17;;
19032;SDS011;9649;51.042;13.804;2023-04-15T09:49:26;4.63;;;2.23;;
19032;SDS011;9649;51.042;13.804;2023-04-15T09:54:33;2.93;;;2.10;;
19032;SDS011;9649;51.042;13.804;2023-04-15T09:59:38;3.97;;;2.30;;
19032;SDS011;9649;51.042;13.804;2023-04-15T10:04:41;3.53;;;2.40;;
19032;SDS011;9649;51.042;13.804;2023-04-15T10:09:44;5.17;;;2.50;;
19032;SDS011;9649;51.042;13.804;2023-04-15T10:14:51;2.70;;;2.37;;
19032;SDS011;9649;51.042;13.804;2023-04-15T10:19:57;4.00;;;2.60;;
19032;SDS011;9649;51.042;13.804;2023-04-15T10:25:02;5.07;;;2.60;;
19032;SDS011;9649;51.042;13.804;2023-04-15T10:30:08;4.60;;;2.63;;
19032;SDS011;9649;51.042;13.804;2023-04-15T10:35:12;3.20;;;2.80;;
19032;SDS011;9649;51.042;13.804;2023-04-15T10:40:25;3.83;;;3.10;;
19032;SDS011;9649;51.042;13.804;2023-04-15T10:45:33;4.27;;;2.73;;
19032;SDS011;9649;51.042;13.804;2023-04-15T10:50:38;3.47;;;2.80;;
19032;SDS011;9649;51.042;13.804;2023-04-15T10:55:41;2.93;;;2.40;;
19032;SDS011;9649;51.042;13.804;2023-04-15T11:00:49;2.50;;;2.30;;
19032;SDS011;9649;51.042;13.804;2023-04-15T11:05:53;2.37;;;2.17;;
19032;SDS011;9649;51.042;13.804;2023-04-15T11:10:57;1.77;;;1.60;;
19032;SDS011;9649;51.042;13.804;2023-04-15T11:16:01;2.00;;;1.60;;
19032;SDS011;9649;51.042;13.804;2023-04-15T11:21:05;3.10;;;1.90;;
19032;SDS011;9649;51.042;13.804;2023-04-15T11:26:09;2.40;;;1.73;;
19032;SDS011;9649;51.042;13.804;2023-04-15T11:31:14;1.80;;;1.33;;
19032;SDS011;9649;51.042;13.804;2023-04-15T11:36:18;2.13;;;1.40;;
19032;SDS011;9649;51.042;13.804;2023-04-15T11:41:21;3.87;;;2.67;;
19032;SDS011;9649;51.042;13.804;2023-04-15T11:46:31;1.50;;;1.30;;
19032;SDS011;9649;51.042;13.804;2023-04-15T11:51:34;1.40;;;1.20;;
19032;SDS011;9649;51.042;13.804;2023-04-15T11:56:37;1.80;;;1.37;;
19032;SDS011;9649;51.042;13.804;2023-04-15T12:01:41;3.03;;;1.23;;
19032;SDS011;9649;51.042;13.804;2023-04-15T12:06:44;1.37;;;1.10;;
19032;SDS011;9649;51.042;13.804;2023-04-15T12:11:48;2.30;;;1.30;;
19032;SDS011;9649;51.042;13.804;2023-04-15T12:16:54;4.27;;;1.20;;
19032;SDS011;9649;51.042;13.804;2023-04-15T12:22:02;1.17;;;1.00;;
19032;SDS011;9649;51.042;13.804;2023-04-15T12:27:12;1.30;;;0.90;;
19032;SDS011;9649;51.042;13.804;2023-04-15T12:32:17;1.47;;;1.17;;
19032;SDS011;9649;51.042;13.804;2023-04-15T12:37:22;1.40;;;1.27;;
19032;SDS011;9649;51.042;13.804;2023-04-15T12:42:24;1.33;;;1.13;;
19032;SDS011;9649;51.042;13.804;2023-04-15T12:47:28;2.40;;;1.00;;
19032;SDS011;9649;51.042;13.804;2023-04-15T12:52:48;1.50;;;1.10;;
19032;SDS011;9649;51.042;13.804;2023-04-15T12:57:52;1.93;;;1.17;;
19032;SDS011;9649;51.042;13.804;2023-04-15T13:02:56;1.10;;;0.93;;
19032;SDS011;9649;51.042;13.804;2023-04-15T13:07:59;3.13;;;1.50;;
19032;SDS011;9649;51.042;13.804;2023-04-15T13:13:02;2.67;;;1.27;;
19032;SDS011;9649;51.042;13.804;2023-04-15T13:18:06;2.20;;;1.70;;
19032;SDS011;9649;51.042;13.804;2023-04-15T13:23:09;1.73;;;1.40;;
19032;SDS011;9649;51.042;13.804;2023-04-15T13:28:15;1.30;;;1.20;;
19032;SDS011;9649;51.042;13.804;2023-04-15T13:33:22;1.80;;;1.20;;
19032;SDS011;9649;51.042;13.804;2023-04-15T13:38:25;1.83;;;1.13;;
19032;SDS011;9649;51.042;13.804;2023-04-15T13:43:31;1.50;;;1.40;;
19032;SDS011;9649;51.042;13.804;2023-04-15T13:48:38;2.05;;;1.25;;
19032;SDS011;9649;51.042;13.804;2023-04-15T13:53:40;1.90;;;1.25;;
19032;SDS011;9649;51.042;13.804;2023-04-15T13:58:46;1.40;;;1.17;;
19032;SDS011;9649;51.042;13.804;2023-04-15T14:03:52;3.43;;;1.30;;
19032;SDS011;9649;51.042;13.804;2023-04-15T14:08:54;2.45;;;1.50;;
19032;SDS011;9649;51.042;13.804;2023-04-15T14:14:00;1.40;;;1.23;;
19032;SDS011;9649;51.042;13.804;2023-04-15T14:19:05;1.73;;;1.42;;
19032;SDS011;9649;51.042;13.804;2023-04-15T14:24:08;1.30;;;1.20;;
19032;SDS011;9649;51.042;13.804;2023-04-15T14:29:13;1.77;;;1.20;;
19032;SDS011;9649;51.042;13.804;2023-04-15T14:34:18;1.20;;;1.10;;
19032;SDS011;9649;51.042;13.804;2023-04-15T14:39:22;1.15;;;0.98;;
19032;SDS011;9649;51.042;13.804;2023-04-15T14:44:25;1.08;;;0.98;;
19032;SDS011;9649;51.042;13.804;2023-04-15T14:49:29;1.02;;;0.80;;
19032;SDS011;9649;51.042;13.804;2023-04-15T15:12:46;1.52;;;1.00;;
19032;SDS011;9649;51.042;13.804;2023-04-15T15:18:52;0.90;;;0.85;;
19032;SDS011;9649;51.042;13.804;2023-04-15T15:24:50;1.05;;;0.95;;
19032;SDS011;9649;51.042;13.804;2023-04-15T15:50:31;1.88;;;1.40;;
19032;SDS011;9649;51.042;13.804;2023-04-15T15:56:23;1.48;;;1.35;;
19032;SDS011;9649;51.042;13.804;2023-04-15T16:21:15;3.05;;;2.10;;
19032;SDS011;9649;51.042;13.804;2023-04-15T16:26:52;1.83;;;1.15;;
19032;SDS011;9649;51.042;13.804;2023-04-15T16:44:29;2.40;;;1.50;;
19032;SDS011;9649;51.042;13.804;2023-04-15T16:50:01;2.22;;;1.38;;
19032;SDS011;9649;51.042;13.804;2023-04-15T16:55:23;1.25;;;0.98;;
19032;SDS011;9649;51.042;13.804;2023-04-15T17:01:45;2.22;;;1.17;;
19032;SDS011;9649;51.042;13.804;2023-04-15T17:07:29;2.38;;;1.35;;
19032;SDS011;9649;51.042;13.804;2023-04-15T17:12:32;1.50;;;1.15;;
19032;SDS011;9649;51.042;13.804;2023-04-15T17:17:39;1.55;;;1.20;;
19032;SDS011;9649;51.042;13.804;2023-04-15T17:22:45;1.60;;;1.50;;
19032;SDS011;9649;51.042;13.804;2023-04-15T17:27:49;1.70;;;1.60;;
19032;SDS011;9649;51.042;13.804;2023-04-15T17:32:55;2.90;;;2.45;;
19032;SDS011;9649;51.042;13.804;2023-04-15T17:38:02;2.55;;;1.80;;
19032;SDS011;9649;51.042;13.804;2023-04-15T17:43:08;3.65;;;1.77;;
19032;SDS011;9649;51.042;13.804;2023-04-15T17:48:17;3.85;;;1.65;;
19032;SDS011;9649;51.042;13.804;2023-04-15T17:53:22;3.93;;;2.47;;
19032;SDS011;9649;51.042;13.804;2023-04-15T17:58:26;3.55;;;2.17;;
19032;SDS011;9649;51.042;13.804;2023-04-15T18:03:30;2.47;;;1.90;;
19032;SDS011;9649;51.042;13.804;2023-04-15T18:08:33;2.05;;;1.60;;
19032;SDS011;9649;51.042;13.804;2023-04-15T18:13:36;2.38;;;1.80;;
19032;SDS011;9649;51.042;13.804;2023-04-15T18:18:41;2.20;;;1.70;;
19032;SDS011;9649;51.042;13.804;2023-04-15T18:23:44;3.07;;;1.97;;
19032;SDS011;9649;51.042;13.804;2023-04-15T18:28:49;3.00;;;2.10;;
19032;SDS011;9649;51.042;13.804;2023-04-15T18:33:53;2.60;;;1.70;;
19032;SDS011;9649;51.042;13.804;2023-04-15T18:38:56;3.00;;;1.70;;
19032;SDS011;9649;51.042;13.804;2023-04-15T18:43:59;3.67;;;2.43;;
19032;SDS011;9649;51.042;13.804;2023-04-15T18:49:03;5.07;;;2.67;;
19032;SDS011;9649;51.042;13.804;2023-04-15T18:54:07;5.87;;;3.50;;
19032;SDS011;9649;51.042;13.804;2023-04-15T18:59:09;4.43;;;2.97;;
19032;SDS011;9649;51.042;13.804;2023-04-15T19:04:31;6.63;;;4.03;;
19032;SDS011;9649;51.042;13.804;2023-04-15T19:09:37;4.37;;;3.00;;
19032;SDS011;9649;51.042;13.804;2023-04-15T19:14:41;4.83;;;3.30;;
19032;SDS011;9649;51.042;13.804;2023-04-15T19:19:47;5.60;;;3.60;;
19032;SDS011;9649;51.042;13.804;2023-04-15T19:24:51;5.87;;;3.73;;
19032;SDS011;9649;51.042;13.804;2023-04-15T19:29:56;4.97;;;3.07;;
19032;SDS011;9649;51.042;13.804;2023-04-15T19:35:10;4.20;;;3.20;;
19032;SDS011;9649;51.042;13.804;2023-04-15T19:40:15;5.10;;;3.63;;
19032;SDS011;9649;51.042;13.804;2023-04-15T19:45:21;5.47;;;3.63;;
19032;SDS011;9649;51.042;13.804;2023-04-15T19:57:21;5.27;;;3.50;;
19032;SDS011;9649;51.042;13.804;2023-04-15T20:03:03;5.87;;;4.20;;
19032;SDS011;9649;51.042;13.804;2023-04-15T20:08:11;6.03;;;3.80;;
19032;SDS011;9649;51.042;13.804;2023-04-15T20:13:29;6.50;;;4.43;;
19032;SDS011;9649;51.042;13.804;2023-04-15T20:19:17;8.17;;;4.50;;
19032;SDS011;9649;51.042;13.804;2023-04-15T20:24:39;9.43;;;6.17;;
19032;SDS011;9649;51.042;13.804;2023-04-15T20:29:59;9.03;;;5.93;;
19032;SDS011;9649;51.042;13.804;2023-04-15T20:35:33;11.37;;;6.83;;
19032;SDS011;9649;51.042;13.804;2023-04-15T20:52:54;16.40;;;10.40;;
19032;SDS011;9649;51.042;13.804;2023-04-15T20:58:14;20.70;;;12.87;;
19032;SDS011;9649;51.042;13.804;2023-04-15T21:03:39;13.67;;;8.63;;
19032;SDS011;9649;51.042;13.804;2023-04-15T21:08:50;10.50;;;6.70;;
19032;SDS011;9649;51.042;13.804;2023-04-15T21:14:34;9.03;;;6.43;;
19032;SDS011;9649;51.042;13.804;2023-04-15T21:20:11;11.23;;;6.83;;
19032;SDS011;9649;51.042;13.804;2023-04-15T21:25:24;9.87;;;6.70;;
19032;SDS011;9649;51.042;13.804;2023-04-15T21:30:27;9.87;;;6.50;;
19032;SDS011;9649;51.042;13.804;2023-04-15T21:35:30;9.83;;;6.77;;
19032;SDS011;9649;51.042;13.804;2023-04-15T21:40:35;12.80;;;7.40;;
19032;SDS011;9649;51.042;13.804;2023-04-15T21:45:40;15.30;;;7.80;;
19032;SDS011;9649;51.042;13.804;2023-04-15T21:51:04;10.50;;;7.33;;
19032;SDS011;9649;51.042;13.804;2023-04-15T21:56:08;9.97;;;7.07;;
19032;SDS011;9649;51.042;13.804;2023-04-15T22:01:11;10.53;;;7.40;;
19032;SDS011;9649;51.042;13.804;2023-04-15T22:06:14;10.90;;;6.73;;
19032;SDS011;9649;51.042;13.804;2023-04-15T22:11:18;10.07;;;7.13;;
19032;SDS011;9649;51.042;13.804;2023-04-15T22:16:23;11.50;;;8.37;;
19032;SDS011;9649;51.042;13.804;2023-04-15T22:21:26;11.50;;;8.20;;
19032;SDS011;9649;51.042;13.804;2023-04-15T22:26:30;10.70;;;8.17;;
19032;SDS011;9649;51.042;13.804;2023-04-15T22:31:33;12.03;;;8.33;;
19032;SDS011;9649;51.042;13.804;2023-04-15T22:36:36;15.03;;;9.70;;
19032;SDS011;9649;51.042;13.804;2023-04-15T22:41:40;12.20;;;9.07;;
19032;SDS011;9649;51.042;13.804;2023-04-15T22:46:43;13.07;;;9.53;;
19032;SDS011;9649;51.042;13.804;2023-04-15T22:51:46;14.00;;;9.70;;
19032;SDS011;9649;51.042;13.804;2023-04-15T22:56:50;13.17;;;9.30;;
19032;SDS011;9649;51.042;13.804;2023-04-15T23:01:52;13.57;;;8.93;;
19032;SDS011;9649;51.042;13.804;2023-04-15T23:06:55;13.57;;;9.17;;
19032;SDS011;9649;51.042;13.804;2023-04-15T23:11:59;12.80;;;9.07;;
19032;SDS011;9649;51.042;13.804;2023-04-15T23:17:03;14.50;;;9.27;;
19032;SDS011;9649;51.042;13.804;2023-04-15T23:22:06;15.63;;;9.80;;
19032;SDS011;9649;51.042;13.804;2023-04-15T23:27:12;12.90;;;9.30;;
19032;SDS011;9649;51.042;13.804;2023-04-15T23:32:14;13.93;;;10.13;;
19032;SDS011;9649;51.042;13.804;2023-04-15T23:37:17;14.33;;;9.37;;
19032;SDS011;9649;51.042;13.804;2023-04-15T23:42:21;14.30;;;9.20;;
19032;SDS011;9649;51.042;13.804;2023-04-15T23:47:24;13.53;;;9.00;;
19032;SDS011;9649;51.042;13.804;2023-04-15T23:52:27;12.60;;;9.37;;
19032;SDS011;9649;51.042;13.804;2023-04-15T23:57:31;13.97;;;9.53;;
